Time;durP1;ratioP1;P1;durP2;ratioP2;P2;SDS_P1;SDS_P2;PMS_P1;PMS_P2;Temp;Humidity;BMP_temperature;BMP_pressure;BME280_temperature;BME280_humidity;BME280_pressure;Samples;Min_cycle;Max_cycle;Signal;HPM_P1;HPM_P2
2023/06/15 00:01:49;;;;;;;7.15;4.88;;;;;;;20.03;nan;37583.72;4955914;28;20679;-60
2023/06/15 00:04:15;;;;;;;6.68;4.45;;;;;;;20.25;nan;46975.06;4992405;28;20636;-57
2023/06/15 00:06:40;;;;;;;6.60;4.35;;;;;;;20.16;nan;48052.13;4992470;28;20195;-58
2023/06/15 00:09:06;;;;;;;6.30;4.20;;;;;;;20.10;nan;53504.66;4992026;28;20181;-59
2023/06/15 00:11:31;;;;;;;6.72;4.40;;;;;;;20.09;nan;55168.50;4992500;28;20271;-59
2023/06/15 00:13:57;;;;;;;7.53;4.63;;;;;;;19.80;nan;55526.94;4992096;28;20172;-60
2023/06/15 00:16:23;;;;;;;7.00;4.68;;;;;;;20.10;nan;56617.13;4992292;28;20165;-60
2023/06/15 00:18:54;;;;;;;8.23;4.20;;;;;;;19.91;nan;57350.78;4992072;28;20268;-58
2023/06/15 00:21:22;;;;;;;6.97;4.43;;;;;;;20.15;nan;57637.97;4991936;28;20205;-57
2023/06/15 00:23:48;;;;;;;7.13;4.68;;;;;;;19.97;nan;56551.69;4992319;28;20583;-58
2023/06/15 00:26:14;;;;;;;8.65;5.13;;;;;;;19.78;nan;53915.50;4991992;28;20178;-57
2023/06/15 00:28:39;;;;;;;7.20;4.22;;;;;;;20.00;nan;51055.66;4994373;28;20184;-59
2023/06/15 00:31:05;;;;;;;6.75;4.25;;;;;;;20.13;nan;54975.31;4995685;28;20183;-60
2023/06/15 00:33:30;;;;;;;7.10;4.22;;;;;;;20.02;nan;56419.66;4995485;28;20239;-61
2023/06/15 00:35:58;;;;;;;5.60;4.07;;;;;;;19.77;nan;54647.16;4996220;28;20185;-58
2023/06/15 00:38:24;;;;;;;5.78;4.10;;;;;;;19.40;nan;52898.16;4995874;28;20169;-61
2023/06/15 00:40:49;;;;;;;5.55;4.22;;;;;;;19.56;nan;52812.69;4995793;28;20175;-59
2023/06/15 00:43:15;;;;;;;6.72;4.35;;;;;;;19.42;nan;53906.16;4995600;28;20567;-62
2023/06/15 00:45:40;;;;;;;13.48;4.25;;;;;;;19.76;nan;56237.16;4995707;28;20209;-60
2023/06/15 00:48:06;;;;;;;6.85;4.07;;;;;;;20.16;nan;57144.13;4996203;28;20224;-58
2023/06/15 00:50:32;;;;;;;7.85;4.05;;;;;;;19.73;nan;57624.25;4995792;28;20181;-58
2023/06/15 00:53:03;;;;;;;7.32;4.38;;;;;;;19.72;nan;57968.13;4995743;28;20165;-61
2023/06/15 00:55:31;;;;;;;8.55;4.18;;;;;;;19.63;nan;56254.63;4995582;28;20699;-60
2023/06/15 00:57:56;;;;;;;7.30;4.50;;;;;;;19.68;nan;55561.13;4995472;28;20235;-59
2023/06/15 01:00:22;;;;;;;9.18;3.78;;;;;;;19.58;nan;56078.63;4995355;28;20620;-57
2023/06/15 01:02:56;;;;;;;7.80;4.15;;;;;;;19.66;nan;56107.66;4995574;28;20204;-58
2023/06/15 01:05:22;;;;;;;6.60;4.03;;;;;;;19.26;nan;56292.03;4995687;28;20176;-57
2023/06/15 01:07:51;;;;;;;6.53;4.20;;;;;;;19.46;nan;55662.56;4995206;28;20175;-58
2023/06/15 01:10:22;;;;;;;5.63;3.90;;;;;;;18.98;nan;52802.91;4995381;28;20177;-58
2023/06/15 01:12:50;;;;;;;5.55;3.85;;;;;;;19.26;nan;50960.41;4995199;28;20197;-59
2023/06/15 01:15:17;;;;;;;6.38;4.10;;;;;;;19.21;nan;52812.69;4995556;28;20227;-60
2023/06/15 01:17:45;;;;;;;7.07;4.53;;;;;;;19.41;nan;52723.91;4995361;28;20711;-59
2023/06/15 01:20:21;;;;;;;5.90;4.45;;;;;;;19.25;nan;52085.03;4995431;28;20188;-60
2023/06/15 01:22:55;;;;;;;5.35;3.72;;;;;;;19.42;nan;51006.69;4995272;28;20200;-60
2023/06/15 01:25:45;;;;;;;7.13;4.40;;;;;;;19.36;nan;50107.44;4994573;28;20279;-60
2023/06/15 01:28:15;;;;;;;7.28;4.55;;;;;;;19.26;nan;46083.25;4995398;28;20171;-56
2023/06/15 01:30:43;;;;;;;5.78;4.22;;;;;;;18.88;nan;42066.06;4994888;28;20180;-59
2023/06/15 01:33:09;;;;;;;6.70;4.32;;;;;;;19.11;nan;32675.38;4994919;28;20211;-58
2023/06/15 01:35:35;;;;;;;7.65;4.70;;;;;;;19.07;nan;32673.09;4972929;28;20176;-60
2023/06/15 01:38:01;;;;;;;7.65;4.93;;;;;;;18.80;nan;31013.34;4941324;28;20189;-57
2023/06/15 01:40:27;;;;;;;7.20;4.38;;;;;;;19.11;nan;27092.69;4995114;28;20544;-59
2023/06/15 01:42:53;;;;;;;7.38;4.35;;;;;;;19.15;nan;25126.94;4994544;28;20225;-57
2023/06/15 01:45:21;;;;;;;7.07;4.45;;;;;;;19.02;nan;26431.56;4994686;28;20173;-59
2023/06/15 01:47:48;;;;;;;7.40;4.20;;;;;;;19.06;nan;24466.19;4994675;28;20227;-59
2023/06/15 01:50:16;;;;;;;5.97;4.05;;;;;;;19.22;nan;31368.25;4994282;28;20173;-57
2023/06/15 01:52:41;;;;;;;6.88;4.43;;;;;;;18.82;nan;33313.84;4994759;28;20527;-60
2023/06/15 01:55:07;;;;;;;6.63;4.28;;;;;;;18.97;nan;35296.34;4994657;28;20184;-58
2023/06/15 01:57:38;;;;;;;6.72;4.22;;;;;;;18.95;nan;31351.19;4994535;28;20176;-57
2023/06/15 02:00:06;;;;;;;6.25;4.25;;;;;;;18.49;nan;31650.94;4994553;28;20588;-59
2023/06/15 02:02:32;;;;;;;8.13;4.45;;;;;;;18.86;nan;33316.50;4993800;28;20676;-59
2023/06/15 02:04:57;;;;;;;6.40;4.30;;;;;;;19.10;nan;34647.63;4994103;28;20205;-57
2023/06/15 02:07:23;;;;;;;6.20;4.10;;;;;;;19.05;nan;34972.72;4994188;28;20613;-59
2023/06/15 02:09:48;;;;;;;6.50;4.68;;;;;;;18.74;nan;35609.41;4994173;28;20179;-58
2023/06/15 02:12:13;;;;;;;6.72;4.05;;;;;;;18.88;nan;38101.88;4994282;28;20632;-58
2023/06/15 02:14:40;;;;;;;6.97;4.35;;;;;;;18.67;nan;32975.41;4994020;28;20263;-57
2023/06/15 02:17:06;;;;;;;5.25;3.67;;;;;;;18.73;nan;37252.91;4994417;28;20183;-58
2023/06/15 02:19:31;;;;;;;6.25;4.25;;;;;;;18.94;nan;37404.13;4993831;28;20181;-58
2023/06/15 02:21:57;;;;;;;7.35;4.32;;;;;;;18.53;nan;35266.38;4994104;28;20204;-59
2023/06/15 02:24:23;;;;;;;5.30;3.90;;;;;;;19.06;nan;36618.50;4993711;28;20181;-60
2023/06/15 02:26:48;;;;;;;5.32;3.65;;;;;;;19.09;nan;42878.00;4993892;28;20173;-58
2023/06/15 02:29:14;;;;;;;6.35;3.90;;;;;;;18.83;nan;44224.69;4993729;28;20258;-57
2023/06/15 02:31:40;;;;;;;5.60;3.90;;;;;;;19.13;nan;46530.78;4993738;28;20307;-59
2023/06/15 02:34:06;;;;;;;7.20;3.97;;;;;;;18.92;nan;49658.31;4993345;28;20267;-59
2023/06/15 02:36:32;;;;;;;6.53;4.18;;;;;;;19.01;nan;47796.50;4993609;28;20181;-56
2023/06/15 02:38:59;;;;;;;6.53;3.95;;;;;;;18.98;nan;48126.47;4993749;28;20267;-57
2023/06/15 02:41:25;;;;;;;5.50;3.80;;;;;;;18.83;nan;51649.66;4993284;28;20260;-57
2023/06/15 02:43:51;;;;;;;6.30;4.25;;;;;;;18.85;nan;51641.25;4993405;28;20227;-58
2023/06/15 02:46:17;;;;;;;4.82;3.67;;;;;;;19.19;nan;51314.75;4993350;28;20675;-60
2023/06/15 02:48:44;;;;;;;5.43;3.85;;;;;;;18.94;nan;51281.31;4989771;28;20177;-60
2023/06/15 02:51:09;;;;;;;5.57;3.75;;;;;;;18.93;nan;51979.44;4973285;28;20541;-57
2023/06/15 02:53:35;;;;;;;5.38;3.75;;;;;;;19.24;nan;54218.41;4974157;28;20180;-57
2023/06/15 02:56:04;;;;;;;5.82;3.95;;;;;;;18.95;nan;54743.03;4973758;28;20637;-55
2023/06/15 02:58:32;;;;;;;5.88;4.22;;;;;;;19.17;nan;55671.84;4974171;28;20197;-57
2023/06/15 03:01:00;;;;;;;5.22;3.97;;;;;;;19.29;nan;57446.38;4973627;28;20177;-60
2023/06/15 03:03:29;;;;;;;4.95;3.50;;;;;;;19.46;nan;58988.19;4973626;28;20181;-57
2023/06/15 03:05:55;;;;;;;5.03;3.60;;;;;;;19.69;nan;59972.38;4973746;28;20177;-60
2023/06/15 03:08:23;;;;;;;5.47;3.40;;;;;;;20.01;nan;60258.69;4973606;28;20285;-59
2023/06/15 03:10:51;;;;;;;5.68;3.53;;;;;;;19.86;nan;60330.16;4974188;28;20192;-60
2023/06/15 03:13:16;;;;;;;6.05;4.15;;;;;;;19.71;nan;60191.66;4994891;28;20219;-60
2023/06/15 03:15:42;;;;;;;5.68;3.75;;;;;;;19.27;nan;60146.00;4994275;28;20220;-58
2023/06/15 03:18:07;;;;;;;5.88;4.07;;;;;;;19.68;nan;60025.09;4993116;28;20227;-59
2023/06/15 03:20:33;;;;;;;6.00;3.92;;;;;;;19.72;nan;60229.06;4993396;28;20188;-58
2023/06/15 03:23:00;;;;;;;6.22;4.10;;;;;;;20.62;nan;60854.81;4992983;28;20508;-59
2023/06/15 03:25:26;;;;;;;7.05;3.90;;;;;;;21.92;nan;61581.53;4992748;28;20176;-60
2023/06/15 03:27:59;;;;;;;7.50;4.40;;;;;;;22.93;nan;62096.13;4992401;28;20187;-59
2023/06/15 03:30:26;;;;;;;6.57;3.85;;;;;;;23.23;nan;62033.81;4992554;28;20267;-58
2023/06/15 03:32:53;;;;;;;4.80;3.38;;;;;;;23.32;nan;62090.44;4992978;28;20169;-57
2023/06/15 03:35:18;;;;;;;6.20;3.33;;;;;;;23.24;nan;62078.72;4992882;28;20201;-58
2023/06/15 03:37:44;;;;;;;4.78;3.67;;;;;;;23.26;nan;62070.56;4992307;28;20211;-59
2023/06/15 03:40:10;;;;;;;6.38;3.83;;;;;;;23.20;nan;62048.66;4992882;28;20176;-60
2023/06/15 03:42:36;;;;;;;6.18;3.88;;;;;;;22.44;nan;61924.25;4992101;28;20232;-59
2023/06/15 03:45:01;;;;;;;7.47;3.97;;;;;;;21.79;nan;61822.31;4992041;28;20223;-59
2023/06/15 03:47:27;;;;;;;6.35;4.10;;;;;;;21.40;nan;61772.84;4992405;28;20199;-59
2023/06/15 03:49:52;;;;;;;7.32;4.68;;;;;;;21.14;nan;61674.31;4992451;28;20172;-60
2023/06/15 03:52:18;;;;;;;5.10;3.85;;;;;;;20.36;nan;61575.56;4992422;28;20203;-60
2023/06/15 03:54:43;;;;;;;4.80;3.60;;;;;;;20.25;nan;61527.34;4992845;28;20169;-58
2023/06/15 03:57:08;;;;;;;6.30;4.28;;;;;;;20.32;nan;61656.66;4992111;28;20173;-58
2023/06/15 03:59:34;;;;;;;5.65;4.05;;;;;;;20.19;nan;61541.88;4991921;28;20203;-58
2023/06/15 04:01:59;;;;;;;6.45;4.10;;;;;;;20.27;nan;61459.53;4991706;28;20226;-57
2023/06/15 04:04:24;;;;;;;5.15;3.75;;;;;;;20.45;nan;61461.75;4992152;28;20176;-60
2023/06/15 04:06:52;;;;;;;7.20;4.40;;;;;;;20.63;nan;61552.19;4992423;28;20252;-59
2023/06/15 04:09:18;;;;;;;7.30;4.07;;;;;;;20.75;nan;61580.22;4992461;28;20185;-59
2023/06/15 04:11:44;;;;;;;6.18;3.97;;;;;;;21.56;nan;61723.97;4991870;28;20176;-60
2023/06/15 04:14:10;;;;;;;5.15;3.80;;;;;;;21.98;nan;61893.34;4991721;28;20568;-59
2023/06/15 04:16:36;;;;;;;9.20;4.85;;;;;;;23.71;nan;62082.69;4992382;28;20235;-59
2023/06/15 04:19:01;;;;;;;5.07;3.83;;;;;;;25.82;nan;62476.94;4992213;28;20173;-57
2023/06/15 04:21:27;;;;;;;5.88;3.72;;;;;;;26.72;nan;62589.28;4991490;28;20200;-59
2023/06/15 04:23:52;;;;;;;7.43;4.10;;;;;;;27.62;nan;62738.53;4991957;28;20255;-60
2023/06/15 04:26:18;;;;;;;5.03;3.63;;;;;;;28.38;nan;62859.34;4991685;28;20569;-60
2023/06/15 04:28:45;;;;;;;5.97;4.00;;;;;;;29.56;nan;63045.91;4991752;28;20179;-60
2023/06/15 04:31:17;;;;;;;5.55;3.50;;;;;;;30.01;nan;63136.13;4991989;28;20200;-60
2023/06/15 04:33:44;;;;;;;4.68;3.58;;;;;;;30.91;nan;63449.94;4992101;28;20165;-59
2023/06/15 04:36:13;;;;;;;6.60;3.83;;;;;;;29.68;nan;63053.88;4991895;28;20172;-61
2023/06/15 04:38:46;;;;;;;4.72;3.20;;;;;;;29.08;nan;62985.44;4991767;28;20630;-58
2023/06/15 04:41:12;;;;;;;4.38;3.45;;;;;;;29.42;nan;62992.94;4991420;28;20318;-60
2023/06/15 04:43:38;;;;;;;4.72;3.42;;;;;;;29.32;nan;62997.25;4991946;28;20643;-58
2023/06/15 04:46:03;;;;;;;5.68;3.97;;;;;;;29.92;nan;63096.78;4991343;28;20178;-59
2023/06/15 04:48:29;;;;;;;4.53;3.55;;;;;;;30.50;nan;63318.69;4991153;28;20180;-57
2023/06/15 04:50:56;;;;;;;5.43;3.65;;;;;;;29.78;nan;63036.97;4991241;28;20168;-59
2023/06/15 04:53:21;;;;;;;4.93;3.75;;;;;;;29.39;nan;63021.69;4991349;28;20227;-61
2023/06/15 04:55:50;;;;;;;4.32;3.38;;;;;;;29.43;nan;63041.50;4990866;28;20172;-60
2023/06/15 04:58:15;;;;;;;5.30;3.47;;;;;;;29.54;nan;63054.16;4991391;28;20538;-60
2023/06/15 05:00:42;;;;;;;4.40;3.40;;;;;;;28.97;nan;62950.25;4991744;28;20199;-64
2023/06/15 05:03:08;;;;;;;5.43;3.80;;;;;;;28.65;nan;62926.03;4989899;28;20203;-59
2023/06/15 05:05:33;;;;;;;4.70;3.28;;;;;;;28.82;nan;62951.44;4990445;28;20234;-57
2023/06/15 05:07:58;;;;;;;4.90;3.63;;;;;;;29.62;nan;63002.75;4990859;28;20278;-58
2023/06/15 05:10:24;;;;;;;5.22;3.88;;;;;;;29.69;nan;63107.72;4990746;28;20180;-58
2023/06/15 05:12:49;;;;;;;5.03;3.70;;;;;;;30.38;nan;63189.28;4990623;28;20184;-56
2023/06/15 05:15:15;;;;;;;7.38;4.40;;;;;;;30.48;nan;63224.59;4994174;28;20223;-58
2023/06/15 05:17:40;;;;;;;5.97;4.00;;;;;;;30.87;nan;63247.28;4994768;28;20267;-58
2023/06/15 05:20:06;;;;;;;7.25;4.22;;;;;;;30.88;nan;63256.94;4994437;28;20223;-59
2023/06/15 05:22:31;;;;;;;4.38;3.40;;;;;;;29.52;nan;63057.13;4994518;28;20196;-58
2023/06/15 05:24:57;;;;;;;5.80;3.92;;;;;;;29.14;nan;62976.53;4994899;28;20603;-57
2023/06/15 05:27:22;;;;;;;4.75;3.45;;;;;;;29.29;nan;62964.81;4994960;28;20172;-59
2023/06/15 05:29:48;;;;;;;6.10;3.80;;;;;;;29.14;nan;63193.00;4994611;28;20173;-57
2023/06/15 05:32:13;;;;;;;6.05;3.90;;;;;;;28.79;nan;62953.25;4994108;28;20194;-58
2023/06/15 05:34:39;;;;;;;4.90;3.55;;;;;;;28.16;nan;62820.38;4994632;28;20179;-59
2023/06/15 05:37:04;;;;;;;5.38;3.58;;;;;;;27.59;nan;62788.19;4994616;28;20669;-60
2023/06/15 05:39:30;;;;;;;5.63;3.95;;;;;;;27.34;nan;62733.22;4994490;28;20173;-58
2023/06/15 05:41:56;;;;;;;7.90;4.15;;;;;;;27.46;nan;62812.06;4994203;28;20220;-59
2023/06/15 05:44:21;;;;;;;5.18;3.85;;;;;;;27.78;nan;62798.91;4994367;28;20177;-59
2023/06/15 05:46:47;;;;;;;6.43;4.22;;;;;;;27.58;nan;62779.16;4994549;28;20173;-61
2023/06/15 05:49:12;;;;;;;5.82;4.00;;;;;;;27.45;nan;62743.22;4994502;28;20168;-61
2023/06/15 05:51:38;;;;;;;6.50;4.18;;;;;;;27.44;nan;62728.38;4994272;28;20694;-59
2023/06/15 05:54:03;;;;;;;6.68;4.40;;;;;;;27.64;nan;62753.97;4993916;28;20165;-61
2023/06/15 05:56:30;;;;;;;7.00;4.60;;;;;;;27.48;nan;62717.78;4994175;28;20176;-60
2023/06/15 05:58:55;;;;;;;6.50;4.35;;;;;;;26.68;nan;62875.78;4994317;28;20310;-61
2023/06/15 06:01:21;;;;;;;9.48;4.90;;;;;;;26.56;nan;62626.59;4993722;28;20207;-59
2023/06/15 06:03:46;;;;;;;7.53;4.65;;;;;;;26.63;nan;62605.78;4994278;28;20180;-61
2023/06/15 06:06:13;;;;;;;6.32;3.78;;;;;;;26.27;nan;62590.75;4993922;28;20260;-60
2023/06/15 06:08:38;;;;;;;7.43;4.68;;;;;;;26.73;nan;62679.56;4993440;28;20593;-62
2023/06/15 06:11:07;;;;;;;8.77;4.40;;;;;;;26.75;nan;62632.63;4993817;28;20179;-60
2023/06/15 06:13:33;;;;;;;6.15;4.18;;;;;;;26.48;nan;62629.94;4994019;28;20263;-59
2023/06/15 06:16:00;;;;;;;6.72;4.85;;;;;;;26.74;nan;62636.13;4993823;28;20234;-61
2023/06/15 06:18:25;;;;;;;8.57;5.03;;;;;;;26.91;nan;62681.88;4993775;28;20681;-61
2023/06/15 06:20:51;;;;;;;6.15;4.45;;;;;;;26.90;nan;62659.75;4993962;28;20267;-58
2023/06/15 06:23:16;;;;;;;6.38;4.20;;;;;;;26.88;nan;62690.97;4993483;28;20231;-62
2023/06/15 06:25:42;;;;;;;6.82;4.35;;;;;;;27.13;nan;62756.97;4993134;28;20172;-61
2023/06/15 06:28:07;;;;;;;8.95;5.00;;;;;;;26.54;nan;62618.47;4993787;28;20183;-62
2023/06/15 06:30:33;;;;;;;6.30;4.22;;;;;;;25.94;nan;62529.94;4993279;28;20200;-62
2023/06/15 06:32:58;;;;;;;7.20;4.60;;;;;;;26.47;nan;62563.84;4993528;28;20243;-59
2023/06/15 06:35:23;;;;;;;6.75;4.35;;;;;;;27.08;nan;62698.75;4993216;28;20165;-58
2023/06/15 06:37:49;;;;;;;6.57;4.72;;;;;;;26.67;nan;62636.56;4992984;28;20624;-59
2023/06/15 06:40:14;;;;;;;8.43;4.35;;;;;;;26.58;nan;62618.41;4993346;28;20283;-62
2023/06/15 06:42:40;;;;;;;6.15;4.43;;;;;;;26.76;nan;62670.47;4993045;28;20220;-58
2023/06/15 06:45:06;;;;;;;7.10;4.32;;;;;;;26.95;nan;62691.13;4993054;28;20208;-57
2023/06/15 06:47:31;;;;;;;8.15;4.78;;;;;;;27.54;nan;62753.00;4993169;28;20207;-60
2023/06/15 06:49:59;;;;;;;7.55;4.85;;;;;;;27.83;nan;62827.72;4993215;28;20179;-61
2023/06/15 06:52:25;;;;;;;6.68;4.72;;;;;;;26.98;nan;62668.91;4992163;28;20184;-61
2023/06/15 06:54:51;;;;;;;6.43;4.53;;;;;;;27.09;nan;62717.69;4993174;28;20168;-60
2023/06/15 06:57:16;;;;;;;6.63;4.50;;;;;;;27.60;nan;62891.19;4993021;28;20546;-60
2023/06/15 06:59:42;;;;;;;7.03;4.45;;;;;;;27.03;nan;62708.19;4992790;28;20551;-61
2023/06/15 07:02:07;;;;;;;6.25;4.57;;;;;;;27.83;nan;62804.66;4992751;28;20224;-63
2023/06/15 07:04:33;;;;;;;7.25;4.38;;;;;;;28.07;nan;62811.16;4992849;28;20256;-61
2023/06/15 07:06:58;;;;;;;7.97;4.95;;;;;;;28.19;nan;62810.66;4992308;28;20203;-63
2023/06/15 07:09:24;;;;;;;9.40;4.80;;;;;;;28.47;nan;62869.69;4993054;28;20183;-61
2023/06/15 07:11:49;;;;;;;7.63;5.10;;;;;;;28.10;nan;62850.84;4992980;28;20204;-59
2023/06/15 07:14:14;;;;;;;7.00;4.78;;;;;;;28.46;nan;62917.94;4992666;28;20164;-62
2023/06/15 07:16:40;;;;;;;8.13;5.10;;;;;;;29.14;nan;62989.69;4992571;28;20266;-61
2023/06/15 07:19:05;;;;;;;7.35;4.85;;;;;;;29.23;nan;63013.19;4992387;28;20182;-61
2023/06/15 07:21:31;;;;;;;7.20;5.07;;;;;;;29.12;nan;62990.63;4992211;28;20302;-60
2023/06/15 07:23:56;;;;;;;8.02;4.97;;;;;;;28.93;nan;62964.06;4992207;28;20196;-59
2023/06/15 07:26:23;;;;;;;8.20;5.38;;;;;;;28.78;nan;62914.69;4992639;28;20179;-61
2023/06/15 07:28:49;;;;;;;8.57;5.72;;;;;;;28.95;nan;62934.78;4992392;28;20174;-58
2023/06/15 07:31:14;;;;;;;12.13;5.30;;;;;;;28.44;nan;63097.09;4974713;28;20271;-61
2023/06/15 07:33:40;;;;;;;10.63;5.20;;;;;;;28.49;nan;62895.06;4992693;28;20168;-58
2023/06/15 07:36:07;;;;;;;7.60;5.00;;;;;;;28.66;nan;62932.44;4991733;28;20164;-59
2023/06/15 07:38:32;;;;;;;7.15;4.57;;;;;;;29.35;nan;62990.16;4992098;28;20729;-60
2023/06/15 07:40:57;;;;;;;8.02;5.20;;;;;;;29.90;nan;63121.41;4991667;28;20259;-59
2023/06/15 07:43:23;;;;;;;7.85;4.93;;;;;;;29.52;nan;63080.25;4992369;28;20615;-58
2023/06/15 07:45:48;;;;;;;7.35;5.20;;;;;;;29.20;nan;63007.69;4974608;28;20172;-62
2023/06/15 07:48:14;;;;;;;6.65;4.65;;;;;;;29.26;nan;63006.13;4992084;28;20258;-62
2023/06/15 07:50:39;;;;;;;8.20;5.10;;;;;;;28.93;nan;62929.88;4990768;28;20183;-60
2023/06/15 07:53:05;;;;;;;10.38;5.88;;;;;;;28.42;nan;62855.47;4991749;28;20187;-57
2023/06/15 07:55:30;;;;;;;7.63;5.30;;;;;;;27.79;nan;62783.72;4992720;28;20661;-59
2023/06/15 07:57:56;;;;;;;7.53;5.47;;;;;;;28.35;nan;62855.31;4992086;28;20230;-56
2023/06/15 08:00:22;;;;;;;7.63;5.22;;;;;;;28.49;nan;62871.41;4992273;28;20624;-58
2023/06/15 08:02:48;;;;;;;9.88;5.35;;;;;;;28.81;nan;62931.28;4992360;28;20204;-62
2023/06/15 08:05:15;;;;;;;8.88;4.85;;;;;;;29.23;nan;62963.16;4992177;28;20644;-60
2023/06/15 08:07:41;;;;;;;7.10;5.18;;;;;;;29.67;nan;63026.97;4991749;28;20560;-60
2023/06/15 08:10:06;;;;;;;9.10;5.78;;;;;;;29.81;nan;63105.75;4992315;28;20243;-59
2023/06/15 08:12:32;;;;;;;8.77;5.55;;;;;;;30.10;nan;63138.59;4992099;28;20698;-59
2023/06/15 08:14:57;;;;;;;8.00;5.45;;;;;;;29.81;nan;63074.69;4974586;28;20175;-60
2023/06/15 08:17:25;;;;;;;7.95;5.00;;;;;;;29.21;nan;62979.31;4992108;28;20176;-61
2023/06/15 08:19:51;;;;;;;7.50;5.53;;;;;;;29.47;nan;63014.50;4990503;28;20168;-63
2023/06/15 08:22:16;;;;;;;7.25;5.20;;;;;;;29.83;nan;63034.22;4989780;28;20257;-63
2023/06/15 08:24:42;;;;;;;6.85;4.43;;;;;;;30.11;nan;63089.63;4989983;28;20176;-61
2023/06/15 08:27:08;;;;;;;7.47;5.18;;;;;;;30.21;nan;63138.63;4990100;28;20176;-62
2023/06/15 08:29:33;;;;;;;8.23;4.95;;;;;;;30.17;nan;63120.25;4989749;28;20318;-61
2023/06/15 08:31:59;;;;;;;6.60;4.63;;;;;;;30.21;nan;63135.41;4990108;28;20548;-62
2023/06/15 08:34:24;;;;;;;7.75;5.20;;;;;;;29.70;nan;63069.94;4991192;28;20226;-62
2023/06/15 08:36:50;;;;;;;6.40;5.22;;;;;;;29.84;nan;63091.31;4992062;28;20218;-58
2023/06/15 08:39:16;;;;;;;8.45;5.57;;;;;;;29.62;nan;63276.81;4992006;28;20179;-61
2023/06/15 08:41:45;;;;;;;8.55;5.47;;;;;;;29.67;nan;63063.28;4991944;28;20224;-63
2023/06/15 08:44:13;;;;;;;7.07;5.00;;;;;;;29.45;nan;63238.19;4991988;28;20176;-61
2023/06/15 08:46:39;;;;;;;6.47;4.63;;;;;;;29.02;nan;62960.09;4992021;28;20172;-60
2023/06/15 08:49:05;;;;;;;9.82;5.60;;;;;;;29.21;nan;62950.94;4993221;28;20726;-63
2023/06/15 08:51:31;;;;;;;7.90;4.93;;;;;;;29.24;nan;63014.94;4996112;28;20195;-60
2023/06/15 08:53:57;;;;;;;6.57;4.53;;;;;;;29.41;nan;63063.47;4996221;28;20612;-60
2023/06/15 08:56:23;;;;;;;7.53;4.85;;;;;;;29.42;nan;63017.22;4995503;28;20238;-61
2023/06/15 08:58:51;;;;;;;6.03;4.40;;;;;;;29.64;nan;63057.19;4995510;28;20168;-62
2023/06/15 09:01:22;;;;;;;6.43;4.70;;;;;;;29.92;nan;63123.13;4995224;28;20277;-61
2023/06/15 09:03:50;;;;;;;7.80;5.10;;;;;;;30.07;nan;63108.75;4995229;28;20556;-61
2023/06/15 09:06:16;;;;;;;7.18;4.90;;;;;;;30.20;nan;63134.25;4995558;28;20264;-59
2023/06/15 09:08:44;;;;;;;9.07;5.22;;;;;;;30.33;nan;63180.91;4994952;28;20259;-63
2023/06/15 09:11:10;;;;;;;8.80;5.57;;;;;;;30.24;nan;63168.47;4995042;28;20284;-59
2023/06/15 09:13:35;;;;;;;6.13;4.60;;;;;;;30.52;nan;63196.97;4995581;28;20608;-61
2023/06/15 09:16:02;;;;;;;6.65;4.38;;;;;;;30.43;nan;63178.66;4994946;28;20168;-61
2023/06/15 09:18:28;;;;;;;7.93;4.82;;;;;;;30.56;nan;63133.53;4995206;28;20287;-63
2023/06/15 09:21:01;;;;;;;6.45;4.80;;;;;;;30.30;nan;63172.16;4995513;28;20259;-63
2023/06/15 09:23:26;;;;;;;6.70;4.45;;;;;;;29.92;nan;63104.69;4995324;28;20227;-61
2023/06/15 09:25:56;;;;;;;7.13;4.60;;;;;;;29.33;nan;63038.47;4995229;28;20250;-62
2023/06/15 09:28:26;;;;;;;6.78;4.80;;;;;;;29.55;nan;63220.72;4994782;28;20254;-60
2023/06/15 09:31:01;;;;;;;7.05;4.85;;;;;;;30.22;nan;63152.41;4994842;28;20654;-60
2023/06/15 09:33:30;;;;;;;6.93;5.20;;;;;;;30.60;nan;63214.69;4994686;28;20171;-60
2023/06/15 09:36:00;;;;;;;7.03;4.97;;;;;;;30.65;nan;63248.91;4994832;28;20280;-61
2023/06/15 09:38:26;;;;;;;10.15;4.88;;;;;;;;;;4994520;28;20629;-59
2023/06/15 09:40:53;;;;;;;6.40;4.85;;;;;;;31.31;nan;63318.59;4994744;28;20169;-60
2023/06/15 09:43:19;;;;;;;7.70;5.25;;;;;;;31.36;nan;63240.38;4994659;28;20192;-62
2023/06/15 09:45:51;;;;;;;7.03;5.22;;;;;;;31.12;nan;63215.94;4994948;28;20239;-58
2023/06/15 09:48:17;;;;;;;8.38;5.22;;;;;;;30.95;nan;63293.47;4994742;28;20226;-62
2023/06/15 09:50:42;;;;;;;7.80;5.10;;;;;;;30.83;nan;63195.72;4994596;28;20180;-62
2023/06/15 09:53:11;;;;;;;7.15;5.07;;;;;;;30.91;nan;63204.34;4994423;28;20604;-59
2023/06/15 09:55:43;;;;;;;8.20;5.47;;;;;;;31.11;nan;63159.34;4994556;28;20650;-61
2023/06/15 09:58:10;;;;;;;7.35;5.50;;;;;;;31.25;nan;63198.06;4994716;28;20235;-60
2023/06/15 10:00:36;;;;;;;10.85;5.50;;;;;;;30.89;nan;64317.06;4993825;28;20203;-62
2023/06/15 10:03:03;;;;;;;7.75;5.55;;;;;;;31.23;nan;63288.81;4993955;28;20239;-61
2023/06/15 10:05:32;;;;;;;8.10;5.15;;;;;;;30.99;nan;63266.38;4994128;28;20189;-60
2023/06/15 10:08:01;;;;;;;6.95;5.35;;;;;;;30.79;nan;63257.13;4994204;28;20192;-58
2023/06/15 10:10:29;;;;;;;7.53;5.38;;;;;;;30.81;nan;63135.34;4993828;28;20199;-60
2023/06/15 10:13:00;;;;;;;7.60;5.20;;;;;;;30.60;nan;63100.63;4994181;28;20227;-62
2023/06/15 10:15:26;;;;;;;8.05;5.45;;;;;;;30.48;nan;63140.16;4994413;28;20183;-63
2023/06/15 10:17:53;;;;;;;8.40;5.82;;;;;;;30.41;nan;63150.53;4994468;28;20212;-60
2023/06/15 10:20:23;;;;;;;10.32;5.75;;;;;;;30.36;nan;63041.91;4993865;28;20179;-61
2023/06/15 10:22:50;;;;;;;8.50;5.47;;;;;;;30.28;nan;63090.72;4993725;28;20577;-58
2023/06/15 10:25:16;;;;;;;9.48;5.43;;;;;;;29.64;nan;62999.22;4993728;28;20182;-62
2023/06/15 10:27:44;;;;;;;8.45;5.20;;;;;;;29.28;nan;62868.84;4994189;28;20652;-62
2023/06/15 10:30:20;;;;;;;8.85;6.03;;;;;;;28.89;nan;62883.16;4994167;28;20184;-62
2023/06/15 10:32:54;;;;;;;9.25;6.13;;;;;;;28.51;nan;62800.06;4994031;28;20202;-60
2023/06/15 10:35:31;;;;;;;9.15;6.22;;;;;;;28.29;nan;62775.41;4993456;28;20172;-60
2023/06/15 10:38:22;;;;;;;8.95;5.95;;;;;;;27.84;nan;62737.47;4993943;28;20192;-61
2023/06/15 10:40:49;;;;;;;10.10;6.68;;;;;;;27.31;nan;62576.97;4992643;28;20286;-62
2023/06/15 10:43:21;;;;;;;8.88;6.07;;;;;;;27.52;nan;62753.88;4993581;28;20196;-58
2023/06/15 10:45:48;;;;;;;9.55;6.10;;;;;;;26.71;nan;62425.53;4993472;28;20180;-60
2023/06/15 10:48:30;;;;;;;9.85;6.18;;;;;;;26.25;nan;62543.91;4993895;28;20171;-63
2023/06/15 10:51:06;;;;;;;8.55;5.38;;;;;;;26.40;nan;62482.47;4992239;28;20651;-62
2023/06/15 10:53:42;;;;;;;9.75;5.95;;;;;;;26.22;nan;62593.44;4993218;28;20176;-59
2023/06/15 10:56:20;;;;;;;9.43;6.18;;;;;;;25.99;nan;62386.34;4992313;28;20184;-60
2023/06/15 10:58:57;;;;;;;9.65;6.22;;;;;;;26.08;nan;62428.06;4993178;28;20157;-60
2023/06/15 11:01:32;;;;;;;9.35;6.15;;;;;;;25.91;nan;62395.56;4992858;28;20648;-61
2023/06/15 11:04:21;;;;;;;9.90;6.15;;;;;;;25.18;nan;62208.69;4993039;28;20223;-62
2023/06/15 11:06:57;;;;;;;9.43;6.30;;;;;;;25.34;nan;62582.78;4992599;28;20196;-59
2023/06/15 11:09:28;;;;;;;11.43;7.10;;;;;;;24.94;nan;62212.72;4992811;28;20161;-60
2023/06/15 11:11:54;;;;;;;14.48;8.07;;;;;;;24.89;nan;62227.94;4991867;28;20235;-61
2023/06/15 11:14:23;;;;;;;12.57;7.13;;;;;;;24.54;nan;62089.88;4992855;28;20173;-58
2023/06/15 11:17:03;;;;;;;10.23;6.43;;;;;;;24.28;nan;62064.97;4992668;28;20196;-61
2023/06/15 11:19:28;;;;;;;12.73;6.40;;;;;;;23.87;nan;61992.75;4992736;28;20184;-62
2023/06/15 11:21:59;;;;;;;10.07;6.57;;;;;;;23.73;nan;61972.75;4992417;28;20193;-62
2023/06/15 11:24:34;;;;;;;13.68;7.15;;;;;;;23.78;nan;61938.72;4992583;28;20230;-58
2023/06/15 11:27:04;;;;;;;13.43;7.25;;;;;;;23.46;nan;61775.16;4993453;28;20204;-61
2023/06/15 11:29:33;;;;;;;15.65;8.35;;;;;;;23.68;nan;61766.16;4992457;28;20543;-60
2023/06/15 11:32:01;;;;;;;15.32;8.13;;;;;;;23.60;nan;61631.88;4993385;28;20185;-61
2023/06/15 11:34:27;;;;;;;10.57;6.35;;;;;;;23.59;nan;61058.94;4993113;28;20165;-61
2023/06/15 11:36:56;;;;;;;8.93;5.63;;;;;;;23.57;nan;60347.41;4975685;28;20173;-59
2023/06/15 11:39:23;;;;;;;9.20;5.53;;;;;;;23.51;nan;58531.78;4989943;28;20563;-61
2023/06/15 11:41:53;;;;;;;8.02;5.00;;;;;;;23.22;nan;55798.44;4972829;28;20232;-59
2023/06/15 11:44:19;;;;;;;9.85;5.80;;;;;;;23.58;nan;56393.06;4972629;28;20157;-60
2023/06/15 11:47:01;;;;;;;8.57;5.40;;;;;;;23.73;nan;56687.50;4972898;28;20205;-60
2023/06/15 11:49:35;;;;;;;7.68;4.95;;;;;;;23.91;nan;59990.66;4972661;28;20239;-61
2023/06/15 11:52:01;;;;;;;8.80;5.05;;;;;;;24.17;nan;60538.75;4972871;28;20208;-60